Blowing Sand Mountains, Nevada Weather observations

Data are for observation ending at time listed.
 Day   Time    Ave.   Ave.  Ave.  Vector   Max.   Stn.    Total    Solar   Ave.  
  of    of     Air    Rel.  Wind   Wind    Wind   Baro.  Precip.   Rad.    Soil  
Year   Day     Temp.  Hum.  Speed  Dir.    Gust   Pres.                    Temp. 
2014   (PST)    F      %     mph   deg.    mph     mb.     in.     W/m2     F   
------------------------------------------------------------------------------
 295    4:30   34.4    50    1.6    93      3.0    884.0     0.00       0     55.9
 295    4:40   34.7    49    0.9    48      1.6    883.9     0.00       0     55.9
 295    4:50   34.2    50    0.5     1      2.1    884.0     0.00       0     55.8
 295    5:00   33.3    50    1.8   272      3.4    884.1     0.00       0     55.7
 295    5:10   33.2    50    1.2   287      2.1    884.2     0.00       0     55.7
 295    5:20   32.2    49    0.7   292      1.9    884.3     0.00       0     55.6
 295    5:30   31.5    50    0.1   110      1.2    884.3     0.00       0     55.6
 295    5:40   31.4    52    1.1   130      2.5    884.4     0.00       0     55.5
 295    5:50   30.9    53    2.2   127      2.6    884.4     0.00       0     55.5
 295    6:00   31.1    53    0.7   124      1.9    884.4     0.00       0     55.4
 295    6:10   31.1    53    0.4    25      1.4    884.5     0.00       2     55.3
 295    6:20   30.8    54    0.2   104      1.5    884.5     0.00       7     55.2
 295    6:30   30.4    55    1.0   140      2.0    884.5     0.00      19     55.2
 295    6:40   31.8    54    2.2   112      2.7    884.5     0.00      30     55.1
 295    6:50   32.0    54    1.1   126      1.8    884.7     0.00      48     55.0
 295    7:00   33.4    52    0.2   239      1.0    884.9     0.00     111     55.0
 295    7:10   34.1    48    0.8   242      2.5    885.0     0.00     115     54.9
 295    7:20   35.8    45    0.0    44      0.8    885.1     0.00     100     54.8
 295    7:30   36.7    43    0.2   248      1.0    885.1     0.00     182     54.8
 295    7:40   37.8    41    0.4   254      2.0    885.2     0.00     200     54.7
 295    7:50   37.9    41    1.4   263      2.3    885.3     0.00     257     54.6
 295    8:00   38.8    40    0.9   290      2.2    885.4     0.00     300     54.6
 295    8:10   40.9    37    0.0    42      0.7    885.2     0.00     173     54.5
 295    8:20   41.8    36    0.9   318      2.6    885.1     0.00     333     54.5
 295    8:30   43.6    34    0.8   299      2.5    885.0     0.00     301     54.4
 295    8:40   45.8    31    0.8   295      2.7    884.9     0.00     339     54.4
 295    8:50   45.6    32    2.3   281      3.1    884.9     0.00     398     54.3
 295    9:00   46.5    30    2.0   286      2.8    884.9     0.00     426     54.3
 295    9:10   48.2    29    1.4   290      2.3    884.9     0.00     420     54.2
 295    9:20   49.5    28    2.1   279      3.2    884.8     0.00     474     54.1
 295    9:30   50.3    27    2.2   286      3.6    884.8     0.00     478     54.1
 295    9:40   52.2    25    2.5   312      3.8    884.7     0.00     557     54.0
 295    9:50   54.8    22    2.2   324      3.3    884.7     0.00     574     54.0
 295   10:00   57.1    19    1.8   324      3.8    884.5     0.00     594     53.9
 295   10:10   58.7    18    2.1   239      6.8    884.4     0.00     604     53.9
 295   10:20   61.8    14    3.0   191      7.8    884.4     0.00     621     53.8
 295   10:30   63.3    13    4.9   179      9.5    884.3     0.00     623     53.8
 295   10:40   64.1    12    5.5   166      9.4    884.2     0.00     634     53.7
 295   10:50   64.3    12    5.6   156      9.1    884.1     0.00     624     53.7
 295   11:00   64.6    12    6.0   166     10.4    883.9     0.00     666     53.7
 295   11:10   65.2    12    6.2   176     11.1    883.7     0.00     672     53.7
 295   11:20   65.9    12    6.2   163     14.6    883.5     0.00     660     53.6
 295   11:30   66.3    11    5.5   157     10.2    883.4     0.00     685     53.6
 295   11:40   66.9    11    4.7   183      8.9    883.4     0.00     687     53.6
 295   11:50   67.0    11    2.9   128      8.2    883.1     0.00     685     53.6
 295   12:00   68.0    11    4.3   166      9.8    882.8     0.00     702     53.5
 295   12:10   69.0    10    4.1   171      7.9    882.8     0.00     705     53.6
 295   12:20   69.7    10    3.5   187      7.5    882.7     0.00     678     53.5
 295   12:30   70.1    10    3.2   123      7.7    882.5     0.00     667     53.5
 295   12:40   70.6    10    3.3   159      6.3    882.5     0.00     636     53.5
 295   12:50   71.7    10    2.0   153      5.0    882.4     0.00     648     53.6
 295   13:00   72.8    10    1.3   166      5.3    882.2     0.00     583     53.6
 295   13:10   72.7    10    1.5   218      4.6    882.0     0.00     600     53.6
 295   13:20   72.8    10    1.9   125      5.7    881.8     0.00     587     53.6
 295   13:30   71.6    10    1.6    36      5.0    881.6     0.00     455     53.7
 295   13:40   71.8    10    2.2    25      5.9    881.5     0.00     478     53.7
 295   13:50   71.5    10    3.3   333      5.3    881.4     0.00     527     53.8
 295   14:00   72.1    10    3.1   350      5.6    881.3     0.00     477     53.8
 295   14:10   72.1    11    2.5   360      5.3    881.2     0.00     356     53.9
 295   14:20   71.9    11    2.6   320      5.0    881.2     0.00     383     53.9
 295   14:30   72.6    11    2.3   328      4.2    881.2     0.00     390     54.0
 295   14:40   72.4    11    2.8   318      4.7    881.2     0.00     287     54.0
 295   14:50   72.2    11    3.9   304      5.2    881.1     0.00     285     54.1
 295   15:00   72.2    11    4.0   299      5.9    881.0     0.00     259     54.2
 295   15:10   72.1    11    3.4   299      4.9    881.0     0.00     195     54.2
 295   15:20   72.0    11    3.8   298      5.3    880.9     0.00     190     54.3
 295   15:30   71.8    12    4.6   298      6.9    880.8     0.00     199     54.4
 295   15:40   71.9    11    4.5   356      7.1    880.9     0.00     179     54.4
 295   15:50   71.3    11    6.7     8      9.0    880.8     0.00     134     54.5
 295   16:00   71.0    11    6.6     6      9.2    880.9     0.00     144     54.6
 295   16:10   70.8    11    5.8    20      8.2    880.8     0.00     128     54.7
 295   16:20   69.7    12    8.9    19     12.1    880.8     0.00     100     54.8
 295   16:30   68.5    13    9.2    22     12.1    880.8     0.00     119     54.9
 295   16:40   68.1    13    8.6    20     12.9    880.8     0.00      99     55.0
 295   16:50   67.6    13    6.9    19      9.8    880.8     0.00      51     55.1
 295   17:00   66.9    14    6.4    18      9.1    880.9     0.00      24     55.1
 295   17:10   66.1    14    5.9    20      8.9    880.9     0.00      11     55.2
 295   17:20   65.4    14    2.8     2      6.7    881.0     0.00       1     55.3
 295   17:30   63.4    15    2.9   286      6.0    881.0     0.00       0     55.4
 295   17:40   63.3    15    1.8   358      4.5    881.1     0.00       0     55.5
 295   17:50   63.4    15    1.1    77      3.8    881.2     0.00       0     55.6
 295   18:00   59.3    19    3.7   243      5.6    881.2     0.00       0     55.7
 295   18:10   57.5    21    2.2   240      3.7    881.2     0.00       0     55.7
 295   18:20   56.1    22    0.7   175      2.3    881.2     0.00       0     55.8
 295   18:30   55.6    22    2.1    90      3.1    881.3     0.00       0     55.9
 295   18:40   55.8    21    2.1   115      2.7    881.3     0.00       0     55.9
 295   18:50   54.6    22    2.6   116      3.5    881.2     0.00       0     56.0
 295   19:00   52.6    24    2.1    96      3.5    881.3     0.00       0     56.0
 295   19:10   51.6    25    1.9    76      3.1    881.5     0.00       0     56.1
 295   19:20   51.5    25    2.3   116      3.7    881.6     0.00       0     56.1
 295   19:30   51.5    25    2.2   139      3.4    881.4     0.00       0     56.2
 295   19:40   49.9    25    3.6   206      4.7    881.5     0.00       0     56.2
 295   19:50   49.1    26    3.3   191      4.0    881.9     0.00       0     56.3
 295   20:00   48.3    26    3.6   140      5.8    882.0     0.00       0     56.3
 295   20:10   48.2    26    3.0    74      5.6    882.0     0.00       0     56.4
 295   20:20   47.9    27    1.8    64      2.9    882.0     0.00       0     56.4
 295   20:30   47.9    27    2.0   128      3.2    882.1     0.00       0     56.4
 295   20:40   47.4    28    2.8   205      4.0    882.3     0.00       0     56.5
 295   20:50   46.7    28    2.7   166      3.5    882.4     0.00       0     56.5
 295   21:00   46.3    29    2.3   134      2.9    882.5     0.00       0     56.5
 295   21:10   46.2    29    0.8   130      2.3    882.7     0.00       0     56.5
 295   21:20   46.2    29    1.5   110      2.2    882.7     0.00       0     56.5
 295   21:30   46.3    29    1.7   106      2.3    882.8     0.00       0     56.5
 295   21:40   46.1    30    3.0   142      3.7    882.6     0.00       0     56.6
 295   21:50   45.3    30    3.1   162      5.0    882.5     0.00       0     56.6
 295   22:00   45.3    30    1.3   137      3.4    882.4     0.00       0     56.6
 295   22:10   45.5    30    0.4    52      1.8    882.3     0.00       0     56.6
 295   22:20   45.6    30    0.9   317      2.3    882.3     0.00       0     56.6
 295   22:30   45.6    31    0.5   335      2.6    882.2     0.00       0     56.6
 295   22:40   45.6    32    2.6   304      3.4    882.3     0.00       0     56.5
 295   22:50   45.9    31    2.6   302      4.3    882.6     0.00       0     56.5
 295   23:00   45.7    31    2.7    54      3.7    882.5     0.00       0     56.5
 295   23:10   45.0    32    2.2   106      3.6    882.6     0.00       0     56.5
 295   23:20   44.1    33    2.3   193      3.4    882.7     0.00       0     56.5
 295   23:30   43.1    34    3.6   207      4.5    882.9     0.00       0     56.5
 295   23:40   42.5    34    1.7   138      4.2    882.9     0.00       0     56.5
 295   23:50   42.1    35    1.2   107      2.6    882.7     0.00       0     56.5
 296    0:00   41.9    36    1.7   148      3.6    882.7     0.00       0     56.4
 296    0:10   42.7    35    2.0   288      4.4    882.9     0.00       0     56.4
 296    0:20   42.8    35    2.5    11      3.6    882.9     0.00       0     56.4
 296    0:30   44.1    34    2.0    72      3.4    882.9     0.00       0     56.4
 296    0:40   43.9    34    2.6   106      3.4    882.7     0.00       0     56.3
 296    0:50   43.4    34    1.6   120      2.6    882.7     0.00       0     56.3
 296    1:00   43.0    36    0.5    88      1.6    882.7     0.00       0     56.3
 296    1:10   43.2    35    1.8   182      2.9    882.7     0.00       0     56.3
 296    1:20   43.5    35    1.2   162      2.9    882.6     0.00       0     56.2
 296    1:30   42.7    36    1.8   261      3.4    882.6     0.00       0     56.2
 296    1:40   41.8    38    1.6   305      4.2    882.6     0.00       0     56.2
 296    1:50   41.9    37    1.8   309      4.0    882.8     0.00       0     56.1
 296    2:00   42.0    37    1.2    84      2.0    882.6     0.00       0     56.1
 296    2:10   41.8    38    2.9   115      4.5    882.5     0.00       0     56.1
 296    2:20   42.1    38    2.9   118      3.9    882.4     0.00       0     56.0
 296    2:30   42.1    38    1.0   136      3.2    882.4     0.00       0     56.0
 296    2:40   41.6    38    1.1   163      2.2    882.3     0.00       0     56.0
 296    2:50   41.1    40    0.9    71      1.9    882.3     0.00       0     56.0
 296    3:00   42.3    39    1.5    40      2.2    882.2     0.00       0     55.9
 296    3:10   41.8    39    1.7    55      3.9    882.1     0.00       0     55.9
 296    3:20   41.1    41    1.9   179      2.6    882.0     0.00       0     55.8
 296    3:30   40.8    40    2.6   183      4.0    881.9     0.00       0     55.8
 296    3:40   40.2    41    2.8   327      4.6    882.1     0.00       0     55.8
 296    3:50   39.9    41    1.6   328      2.9    882.2     0.00       0     55.7
 296    4:00   39.9    40    0.4    69      2.0    882.3     0.00       0     55.7
 296    4:10   40.0    41    2.1    88      2.9    882.3     0.00       0     55.7
 296    4:20   40.2    41    3.1   140      3.8    882.4     0.00       0     55.6

Return to Blowing Sand Mountains graphs page.


Western Regional Climate Center,wrcc@dri.edu